createdAt,value
2023-06-28T00:01:56.297Z,6.22
2023-06-28T00:04:23.149Z,6.25
2023-06-28T00:06:49.857Z,6.40
2023-06-28T00:09:16.548Z,6.32
2023-06-28T00:11:43.194Z,6.70
2023-06-28T00:14:09.788Z,6.50
2023-06-28T00:16:36.930Z,7.30
2023-06-28T08:14:52.170Z,6.80
2023-06-28T08:17:18.769Z,8.65
2023-06-28T08:19:45.346Z,7.18
2023-06-28T08:22:12.577Z,6.50
2023-06-28T08:24:39.463Z,6.32
2023-06-28T08:27:07.311Z,6.38
2023-06-28T08:29:34.005Z,7.00
2023-06-28T08:32:00.797Z,6.30
2023-06-28T08:34:27.492Z,7.50
2023-06-28T08:36:54.157Z,6.45
2023-06-28T08:39:21.456Z,6.40
2023-06-28T08:41:49.995Z,5.65
2023-06-28T08:44:20.833Z,5.65
2023-06-28T08:46:49.368Z,5.53
2023-06-28T08:49:17.851Z,5.30
2023-06-28T08:51:45.013Z,6.85
2023-06-28T08:54:13.795Z,6.10
2023-06-28T08:56:48.515Z,6.23
2023-06-28T08:59:21.463Z,6.10
2023-06-28T09:01:49.308Z,6.03
2023-06-28T09:04:18.492Z,6.13
2023-06-28T09:06:45.483Z,6.03
2023-06-28T09:09:12.649Z,5.55
2023-06-28T09:11:40.041Z,5.55
2023-06-28T09:14:06.686Z,5.38
2023-06-28T09:16:33.905Z,5.88
2023-06-28T09:19:00.542Z,5.57
2023-06-28T09:21:28.229Z,5.85
2023-06-28T09:23:55.453Z,7.30
2023-06-28T09:26:32.774Z,5.70
2023-06-28T09:29:12.337Z,7.25
2023-06-28T09:31:43.679Z,5.60
2023-06-28T09:34:10.535Z,5.90
2023-06-28T09:36:38.539Z,4.70
2023-06-28T09:39:06.523Z,5.18
2023-06-28T09:41:43.995Z,5.00
2023-06-28T09:44:12.593Z,5.50
2023-06-28T09:46:48.921Z,4.60
2023-06-28T09:49:23.172Z,5.35
2023-06-28T09:52:07.392Z,3.80
2023-06-28T09:54:35.944Z,5.22
2023-06-28T09:57:03.411Z,4.47
2023-06-28T09:59:36.111Z,3.72
2023-06-28T10:02:08.746Z,3.72
2023-06-28T10:04:39.587Z,4.00
2023-06-28T10:07:09.534Z,3.90
2023-06-28T10:09:41.624Z,3.90
2023-06-28T10:12:21.542Z,4.43
2023-06-28T10:15:01.750Z,3.85
2023-06-28T10:17:37.263Z,3.95
2023-06-28T10:20:06.005Z,3.72
2023-06-28T10:22:33.261Z,3.60
2023-06-28T10:25:03.231Z,3.63
2023-06-28T10:27:30.063Z,3.47
2023-06-28T10:29:58.809Z,4.20
2023-06-28T10:32:25.656Z,4.70
2023-06-28T10:34:52.910Z,6.70
2023-06-28T10:37:23.298Z,4.05
2023-06-28T10:39:54.568Z,4.32
2023-06-28T10:42:21.965Z,3.78
2023-06-28T10:44:57.451Z,3.45
2023-06-28T10:47:24.592Z,6.03
2023-06-28T10:50:12.021Z,3.75
2023-06-28T10:52:49.283Z,3.65
2023-06-28T10:55:30.183Z,4.40
2023-06-28T10:58:12.454Z,3.50
2023-06-28T11:00:41.700Z,7.50
2023-06-28T11:03:08.885Z,4.88
2023-06-28T11:05:39.234Z,4.40
2023-06-28T11:08:16.973Z,4.80
2023-06-28T15:44:13.146Z,2.80
2023-06-28T15:46:39.926Z,2.67
2023-06-28T15:49:06.785Z,5.90
2023-06-28T15:51:33.634Z,2.35
2023-06-28T15:54:01.176Z,2.60
2023-06-28T15:56:28.142Z,3.58
2023-06-28T15:58:55.046Z,2.20
2023-06-28T16:01:22.057Z,3.40
2023-06-28T16:03:49.098Z,2.78
2023-06-28T16:06:16.228Z,3.85
2023-06-28T16:08:43.085Z,2.05
2023-06-28T16:11:09.684Z,2.20
2023-06-28T16:13:49.371Z,2.70
2023-06-28T16:16:16.136Z,2.50
2023-06-28T16:18:45.046Z,2.67
2023-06-28T16:21:11.741Z,2.20
2023-06-28T16:23:38.586Z,1.95
2023-06-28T16:26:11.637Z,2.22
2023-06-28T16:28:50.712Z,2.42
2023-06-28T16:31:27.221Z,2.55
2023-06-28T16:33:54.843Z,2.60
2023-06-28T16:36:21.822Z,1.90
2023-06-28T16:38:48.535Z,3.63
2023-06-28T16:41:20.073Z,2.80
2023-06-28T16:43:46.728Z,2.42
2023-06-28T16:46:22.046Z,2.28
2023-06-28T16:48:56.804Z,6.55
2023-06-28T16:51:34.217Z,3.70
2023-06-28T16:54:01.058Z,2.40
2023-06-28T16:56:27.930Z,2.22
2023-06-28T16:58:54.599Z,5.68
2023-06-28T17:01:21.508Z,4.10
2023-06-28T17:03:48.363Z,4.03
2023-06-28T17:06:15.136Z,3.38
2023-06-28T17:08:42.122Z,2.35
2023-06-28T17:12:05.034Z,2.95
2023-06-28T17:15:15.882Z,2.20
2023-06-28T17:17:43.719Z,2.40
2023-06-28T17:20:12.733Z,2.72
2023-06-28T17:22:39.654Z,2.58
2023-06-28T17:25:08.085Z,3.08
2023-06-28T17:27:34.949Z,3.08
2023-06-28T17:30:01.593Z,3.47
